メインページ
METAR-TAF:

METAR-TAF

空港 :

South Bend Regional Airport

サウスベンド, インディアナ州, アメリカ合衆国

緯度: 41-42-32N, 経度: 086-19-07W, 海抜: 244m

現時点の気象観測

当レポートは12分前の05:54(UTC)に作成
無風
気温 22°C
湿度 83%
気圧 1016 hPa
視程: 16.1km
晴天

METAR: KSBN 270554Z AUTO 00000KT 10SM CLR 22/19 A2999 RMK AO2 SLP149 T02170194 10294 20211 50002 $

時間: 02:06 (06:06 UTC)

予報

当レポートは46分前の05:20(UTC)に作成
予報は27日の 06時(UTC)から 28日の 06時(UTC)まで有効
変向風 4kt
視程: 10km
高度8000ftの雲は散在している
27日の 1800時(UTC)から
南/南東の風 9kt
視程: 10km
高度4000ftの千切れ雲あり, 積乱雲.
近辺で激しい雷雨
28日の 0000時(UTC)から
の風 5kt
視程: 10km
高度6000ftの千切れ雲あり

TAF: KSBN 270520Z 2706/2806 VRB04KT P6SM SCT080 FM271800 16009KT P6SM VCTS BKN040CB FM280000 18005KT P6SM BKN060

4,000以上の空港の気象観測と天気予報(METAR報とTAF報)

利用可能な観測所は地図上に黄色い丸と赤い丸で示す。

丸の上にカーソルを重ねると観測所名を参照できる。

次にクリックすると気象観測と天気予報を参照できる。

マップの切り替え:黒色「×」印の緑ボタンをクリックして拡大、「-」印の緑ボタンをクリックして縮小、緑色の三角印をクリックして隣りの地図に切り替え


METAR-TAF: